SPLO

Ilo Airport

Ilo, Peru
SPLO 251115Z 2512/2612 17007KT 9999 BKN030 TX20/2519Z TN16/2610Z
Issued Valid From Valid To
Sep-25 @ 11:15 UTC
(4 hours ago)
Sep-25 @ 12:00 UTC
(3 hours ago)
Sep-26 @ 12:00 UTC
(in 21 hours)
Sep-25 @ 12:00 to Sep-26 @ 12:00
SPLO 251115Z 2512/2612 17007KT 9999 BKN030 TX20/2519Z TN16/2610Z
Wind Visibility Clouds
170° at 7 knots 10,000+ meters
  • Broken at 3,000' AGL
SPLO 251115Z 2512/2612 17007KT 9999 BKN030 TX20/2519Z TN16/2610Z
Issued Sep-25 @ 11:15 UTC
(4 hours ago)
Valid From Sep-25 @ 12:00 UTC
(3 hours ago)
Valid To Sep-26 @ 12:00 UTC
(in 21 hours)
Sep-25 @ 12:00 - Sep-26 @ 12:00
Wind Visibility
170° at 7 knots 10,000+ meters
Clouds
  • Broken at 3,000' AGL